Souda — SVBH5 — position and weather

sailwx.info

Track history (hours):
 
Tides and Currents Weather Stations Pressure Air Temp Water Temp Dewpoint Dewpoint Depression Visibility Wind Speed Wind Dir Waves Ship Positions

Souda

Last reported at 2016-May-24 03:21 UTC. Time now 2016-May-24 06:04 UTC.
Position N 37°57' E 023°35'.

Length 88 m; draft 3.6 m.

Type: Tanker. MMSI: 241109000.

Date/timePositionNaut miles runAvg speedWind from/ knotsBaromVisibWave heightAir tempDewpointWater temp
2016-May-24 03:21N 37°57' E 023°35'0 0.0
2016-May-24 02:30N 37°57' E 023°35'0 0.0
2016-May-23 23:06N 37°57' E 023°35'0 0.0
2016-May-23 22:18N 37°57' E 023°35'0 0.0
2016-May-23 21:27N 37°57' E 023°35'0 0.0
2016-May-23 20:30N 37°57' E 023°35'0 0.0
2016-May-23 19:33N 37°57' E 023°35'0 0.0
2016-May-23 18:33N 37°57' E 023°35'0 0.0
2016-May-23 17:33N 37°57' E 023°35'0 0.0
2016-May-23 16:15N 37°57' E 023°35'0 0.0
2016-May-23 15:30N 37°57' E 023°35'0 0.0
2016-May-23 14:30N 37°57' E 023°35'0 0.0
2016-May-23 13:33N 37°57' E 023°35'0 0.0
2016-May-23 12:24N 37°57' E 023°35'0 0.0
2016-May-23 11:24N 37°57' E 023°35'0 0.0
2016-May-23 10:30N 37°57' E 023°35'0 0.0
2016-May-23 09:27N 37°57' E 023°35'0 0.0
2016-May-23 08:33N 37°57' E 023°35'0 0.0
2016-May-23 07:30N 37°57' E 023°35'0 0.0
2016-May-23 06:30N 37°57' E 023°35'0 0.0
2016-May-23 05:30N 37°57' E 023°35'0 0.0
2016-May-23 04:33N 37°57' E 023°35'0 0.0
2016-May-23 03:33N 37°57' E 023°35'0 0.0
2016-May-23 02:33N 37°57' E 023°35'0 0.0
2016-May-23 01:33N 37°57' E 023°35'0 0.0
2016-May-23 00:27N 37°57' E 023°35'0 0.0
2016-May-22 23:33N 37°57' E 023°35'0 0.0
2016-May-22 22:33N 37°57' E 023°35'0 0.0
2016-May-22 21:33N 37°57' E 023°35'0 0.0
2016-May-22 20:30N 37°57' E 023°35'0 0.0
2016-May-22 19:30N 37°57' E 023°35'0 0.0
2016-May-22 18:33N 37°57' E 023°35'0 0.0
2016-May-22 17:33N 37°57' E 023°35'0 0.0
2016-May-22 16:33N 37°57' E 023°35'0 0.0
2016-May-22 15:33N 37°57' E 023°35'5 5.3
2016-May-22 14:33N 37°52' E 023°34'7 7.2
2016-May-22 13:34N 37°50' E 023°25'9 8.8
2016-May-22 12:33N 37°52' E 023°14'8 1.1
2016-May-22 05:31N 37°55' E 023°05'0 0.0
2016-May-22 04:33N 37°55' E 023°05'0 0.0
2016-May-22 03:33N 37°55' E 023°05'0 0.0
2016-May-22 01:33N 37°55' E 023°05'0 0.0
2016-May-21 17:13N 37°55' E 023°05'0 0.0
2016-May-21 16:33N 37°55' E 023°05'0 0.0
2016-May-21 13:32N 37°55' E 023°05'1 1.1
2016-May-21 12:28N 37°54' E 023°04'0 0.0
2016-May-21 11:31N 37°54' E 023°04'0 0.0
2016-May-21 10:28N 37°54' E 023°04'0 0.0
2016-May-21 09:25N 37°54' E 023°04'0 0.1
2016-May-21 08:19N 37°54' E 023°04'6 7.9
2016-May-21 07:33N 37°53' E 023°12'1010.0
2016-May-21 06:34N 37°51' E 023°24'8 8.3
2016-May-21 05:33N 37°53' E 023°34'4 4.4
2016-May-21 04:33N 37°57' E 023°35'0 0.0
2016-May-21 03:33N 37°57' E 023°35'0 0.0
2016-May-21 02:33N 37°57' E 023°35'0 0.0
2016-May-21 01:33N 37°57' E 023°35'0 0.0
2016-May-21 00:33N 37°57' E 023°35'0 0.0
2016-May-20 23:30N 37°57' E 023°35'0 0.0
2016-May-20 22:33N 37°57' E 023°35'0 0.0
2016-May-20 21:33N 37°57' E 023°35'0 0.0
2016-May-20 20:30N 37°57' E 023°35'0 0.0
2016-May-20 19:33N 37°57' E 023°35'0 0.0
2016-May-20 18:33N 37°57' E 023°35'0 0.0
2016-May-20 17:30N 37°57' E 023°35'0 0.0
2016-May-20 16:33N 37°57' E 023°35'0 0.0
2016-May-20 15:33N 37°57' E 023°35'0 0.0
2016-May-20 14:33N 37°57' E 023°35'0 0.0
2016-May-20 13:33N 37°57' E 023°35'0 0.0
2016-May-20 12:27N 37°57' E 023°35'0 0.0
2016-May-20 11:33N 37°57' E 023°35'0 0.0
2016-May-20 10:33N 37°57' E 023°35'0 0.0
2016-May-20 09:33N 37°57' E 023°35'0 0.0
2016-May-20 08:33N 37°57' E 023°35'0 0.0
2016-May-20 07:33N 37°57' E 023°35'0 0.0
2016-May-20 06:33N 37°57' E 023°35'0 0.0
2016-May-20 05:33N 37°57' E 023°35'0 0.0
2016-May-20 04:33N 37°57' E 023°35'0 0.0
2016-May-20 03:33N 37°57' E 023°35'0 0.0
2016-May-20 02:30N 37°57' E 023°35'0 0.0
2016-May-20 01:33N 37°57' E 023°35'0 0.0
2016-May-20 00:33N 37°57' E 023°35'0 0.0
2016-May-19 23:30N 37°57' E 023°35'0 0.0
2016-May-19 22:33N 37°57' E 023°35'0 0.0
2016-May-19 21:33N 37°57' E 023°35'0 0.0
2016-May-19 20:33N 37°57' E 023°35'0 0.0
2016-May-19 19:33N 37°57' E 023°35'0 0.0
2016-May-19 18:33N 37°57' E 023°35'0 0.0
2016-May-19 17:33N 37°57' E 023°35'0 0.0
2016-May-19 16:33N 37°57' E 023°35'0 0.0
2016-May-19 15:33N 37°57' E 023°35'0 0.0
2016-May-19 14:33N 37°57' E 023°35'0 0.0
2016-May-19 13:33N 37°57' E 023°35'0 0.0
2016-May-19 12:33N 37°57' E 023°35'0 0.0
2016-May-19 11:33N 37°57' E 023°35'0 0.0
2016-May-19 10:30N 37°57' E 023°35'0 0.1
2016-May-19 09:33N 37°57' E 023°35'6 5.5
2016-May-19 08:33N 37°52' E 023°34'8 8.3
2016-May-19 07:33N 37°51' E 023°23'9 9.3
2016-May-19 06:33N 37°53' E 023°12'5 1.1
2016-May-19 01:33N 37°55' E 023°05'0 0.0
2016-May-19 00:33N 37°55' E 023°05'0 0.0
2016-May-18 23:19N 37°55' E 023°05'0 0.0
2016-May-18 22:33N 37°55' E 023°05'0 0.0
2016-May-18 21:30N 37°55' E 023°05'0 0.0
2016-May-18 20:33N 37°55' E 023°05'0 0.0
2016-May-18 19:32N 37°55' E 023°05'0 0.0
2016-May-18 18:20N 37°55' E 023°05'0 0.0
2016-May-18 17:33N 37°55' E 023°05'0 0.0
2016-May-18 16:33N 37°55' E 023°05'0 0.0
2016-May-18 15:29N 37°55' E 023°05'0 0.0
2016-May-18 14:32N 37°55' E 023°05'0 0.0
2016-May-18 13:33N 37°55' E 023°05'0 0.0
2016-May-18 12:25N 37°55' E 023°05'0 0.0
2016-May-18 11:05N 37°55' E 023°05'0 0.0
2016-May-18 10:33N 37°55' E 023°05'0 0.0
2016-May-18 09:26N 37°55' E 023°05'0 0.0
2016-May-18 04:30N 37°55' E 023°05'1 1.1
2016-May-18 03:33N 37°54' E 023°04'0 0.1
2016-May-18 02:16N 37°54' E 023°04'0 0.0
2016-May-17 22:31N 37°54' E 023°04'1 1.1
2016-May-17 21:33N 37°55' E 023°05'0 0.0
2016-May-17 20:34N 37°55' E 023°05'0 0.0
2016-May-17 19:33N 37°55' E 023°05'0 0.0
2016-May-17 18:34N 37°55' E 023°05'0 0.0
2016-May-17 17:33N 37°55' E 023°05'0 0.0
2016-May-17 16:33N 37°55' E 023°05'0 0.0
2016-May-17 15:33N 37°55' E 023°05'0 0.0
2016-May-17 14:31N 37°55' E 023°05'1 1.0
2016-May-17 13:22N 37°54' E 023°04'0 0.0
2016-May-17 11:25N 37°54' E 023°04'0 0.0
2016-May-17 09:28N 37°54' E 023°04'0 0.0
2016-May-17 08:28N 37°54' E 023°04'0 0.0
2016-May-17 04:31N 37°54' E 023°04'0 0.0
2016-May-17 03:31N 37°54' E 023°04'0 0.0
2016-May-17 02:25N 37°54' E 023°04'0 0.0
2016-May-17 01:31N 37°54' E 023°04'0 0.0
2016-May-17 00:28N 37°54' E 023°04'0 0.0
2016-May-16 23:31N 37°54' E 023°04'0 0.0
2016-May-16 22:31N 37°54' E 023°04'0 0.0
2016-May-16 21:22N 37°54' E 023°04'0 0.1
2016-May-16 20:31N 37°54' E 023°04'0 0.0
2016-May-16 19:13N 37°54' E 023°04'0 0.0
2016-May-16 18:31N 37°54' E 023°04'0 0.0
2016-May-16 17:28N 37°54' E 023°04'0 0.0
2016-May-16 15:22N 37°54' E 023°04'0 0.0
2016-May-16 12:24N 37°54' E 023°04'0 0.0
2016-May-16 11:19N 37°54' E 023°04'0 0.0
2016-May-16 10:07N 37°54' E 023°04'0 0.0
2016-May-16 09:04N 37°54' E 023°04'0 0.0
2016-May-16 08:19N 37°54' E 023°04'0 0.0
2016-May-16 07:28N 37°54' E 023°04'0 0.0
2016-May-16 06:31N 37°54' E 023°04'0 0.0
2016-May-16 05:34N 37°54' E 023°04'0 0.0
2016-May-16 04:34N 37°54' E 023°04'0 0.0
2016-May-16 03:31N 37°54' E 023°04'0 0.1
2016-May-16 02:34N 37°54' E 023°04'0 0.0
2016-May-16 01:34N 37°54' E 023°04'0 0.0
2016-May-16 00:33N 37°54' E 023°04'0 0.0
2016-May-15 23:33N 37°54' E 023°04'0 0.0
2016-May-15 22:33N 37°54' E 023°04'0 0.0
2016-May-15 21:30N 37°54' E 023°04'0 0.0
2016-May-15 20:33N 37°54' E 023°04'0 0.1
2016-May-15 19:27N 37°54' E 023°04'0 0.0
2016-May-15 18:27N 37°54' E 023°04'0 0.0
2016-May-15 17:30N 37°54' E 023°04'0 0.0
2016-May-15 16:30N 37°54' E 023°04'0 0.0
2016-May-15 15:21N 37°54' E 023°04'0 0.0
2016-May-15 14:30N 37°54' E 023°04'0 0.0
2016-May-15 13:33N 37°54' E 023°04'0 0.0
2016-May-15 12:19N 37°54' E 023°04'0 0.0
2016-May-15 11:33N 37°54' E 023°04'0 0.0
2016-May-15 10:21N 37°54' E 023°04'0 0.0
2016-May-15 09:33N 37°54' E 023°04'0 0.0
2016-May-15 08:30N 37°54' E 023°04'0 0.0
2016-May-15 07:33N 37°54' E 023°04'0 0.0
2016-May-15 06:33N 37°54' E 023°04'0 0.0
2016-May-15 05:30N 37°54' E 023°04'0 0.0
2016-May-15 04:33N 37°54' E 023°04'0 0.0
2016-May-15 02:27N 37°54' E 023°04'0 0.0
2016-May-15 01:33N 37°54' E 023°04'0 0.0
2016-May-15 00:24N 37°54' E 023°04'0 0.0
2016-May-14 23:33N 37°54' E 023°04'0 0.0
2016-May-14 22:33N 37°54' E 023°04'0 0.0
2016-May-14 21:33N 37°54' E 023°04'0 0.1
2016-May-14 20:33N 37°54' E 023°04'8 7.8
2016-May-14 19:33N 37°53' E 023°14'1010.0
2016-May-14 18:34N 37°51' E 023°26'10 9.8
2016-May-14 17:33N 37°48' E 023°38'9 9.0
2016-May-14 16:33N 37°41' E 023°45'9 9.4
2016-May-14 15:33N 37°38' E 023°56'19 8.6
2016-May-14 13:24N 37°44' E 024°18'  
Track history (hours):
 
Tides and Currents Weather Stations Pressure Air Temp Water Temp Dewpoint Dewpoint Depression Visibility Wind Speed Wind Dir Waves Ship Positions

Souda

Last reported at 2016-May-24 03:21 UTC. Time now 2016-May-24 06:04 UTC.
Position N 37°57' E 023°35'.

Length 88 m; draft 3.6 m.

Type: Tanker. MMSI: 241109000.

Date/timePositionNaut miles runAvg speedWind from/ knotsBaromVisibWave heightAir tempDewpointWater temp
2016-May-24 03:21N 37°57' E 023°35'0 0.0
2016-May-24 02:30N 37°57' E 023°35'0 0.0
2016-May-23 23:06N 37°57' E 023°35'0 0.0
2016-May-23 22:18N 37°57' E 023°35'0 0.0
2016-May-23 21:27N 37°57' E 023°35'0 0.0
2016-May-23 20:30N 37°57' E 023°35'0 0.0
2016-May-23 19:33N 37°57' E 023°35'0 0.0
2016-May-23 18:33N 37°57' E 023°35'0 0.0
2016-May-23 17:33N 37°57' E 023°35'0 0.0
2016-May-23 16:15N 37°57' E 023°35'0 0.0
2016-May-23 15:30N 37°57' E 023°35'0 0.0
2016-May-23 14:30N 37°57' E 023°35'0 0.0
2016-May-23 13:33N 37°57' E 023°35'0 0.0
2016-May-23 12:24N 37°57' E 023°35'0 0.0
2016-May-23 11:24N 37°57' E 023°35'0 0.0
2016-May-23 10:30N 37°57' E 023°35'0 0.0
2016-May-23 09:27N 37°57' E 023°35'0 0.0
2016-May-23 08:33N 37°57' E 023°35'0 0.0
2016-May-23 07:30N 37°57' E 023°35'0 0.0
2016-May-23 06:30N 37°57' E 023°35'0 0.0
2016-May-23 05:30N 37°57' E 023°35'0 0.0
2016-May-23 04:33N 37°57' E 023°35'0 0.0
2016-May-23 03:33N 37°57' E 023°35'0 0.0
2016-May-23 02:33N 37°57' E 023°35'0 0.0
2016-May-23 01:33N 37°57' E 023°35'0 0.0
2016-May-23 00:27N 37°57' E 023°35'0 0.0
2016-May-22 23:33N 37°57' E 023°35'0 0.0
2016-May-22 22:33N 37°57' E 023°35'0 0.0
2016-May-22 21:33N 37°57' E 023°35'0 0.0
2016-May-22 20:30N 37°57' E 023°35'0 0.0
2016-May-22 19:30N 37°57' E 023°35'0 0.0
2016-May-22 18:33N 37°57' E 023°35'0 0.0
2016-May-22 17:33N 37°57' E 023°35'0 0.0
2016-May-22 16:33N 37°57' E 023°35'0 0.0
2016-May-22 15:33N 37°57' E 023°35'5 5.3
2016-May-22 14:33N 37°52' E 023°34'7 7.2
2016-May-22 13:34N 37°50' E 023°25'9 8.8
2016-May-22 12:33N 37°52' E 023°14'8 1.1
2016-May-22 05:31N 37°55' E 023°05'0 0.0
2016-May-22 04:33N 37°55' E 023°05'0 0.0
2016-May-22 03:33N 37°55' E 023°05'0 0.0
2016-May-22 01:33N 37°55' E 023°05'0 0.0
2016-May-21 17:13N 37°55' E 023°05'0 0.0
2016-May-21 16:33N 37°55' E 023°05'0 0.0
2016-May-21 13:32N 37°55' E 023°05'1 1.1
2016-May-21 12:28N 37°54' E 023°04'0 0.0
2016-May-21 11:31N 37°54' E 023°04'0 0.0
2016-May-21 10:28N 37°54' E 023°04'0 0.0
2016-May-21 09:25N 37°54' E 023°04'0 0.1
2016-May-21 08:19N 37°54' E 023°04'6 7.9
2016-May-21 07:33N 37°53' E 023°12'1010.0
2016-May-21 06:34N 37°51' E 023°24'8 8.3
2016-May-21 05:33N 37°53' E 023°34'4 4.4
2016-May-21 04:33N 37°57' E 023°35'0 0.0
2016-May-21 03:33N 37°57' E 023°35'0 0.0
2016-May-21 02:33N 37°57' E 023°35'0 0.0
2016-May-21 01:33N 37°57' E 023°35'0 0.0
2016-May-21 00:33N 37°57' E 023°35'0 0.0
2016-May-20 23:30N 37°57' E 023°35'0 0.0
2016-May-20 22:33N 37°57' E 023°35'0 0.0
2016-May-20 21:33N 37°57' E 023°35'0 0.0
2016-May-20 20:30N 37°57' E 023°35'0 0.0
2016-May-20 19:33N 37°57' E 023°35'0 0.0
2016-May-20 18:33N 37°57' E 023°35'0 0.0
2016-May-20 17:30N 37°57' E 023°35'0 0.0
2016-May-20 16:33N 37°57' E 023°35'0 0.0
2016-May-20 15:33N 37°57' E 023°35'0 0.0
2016-May-20 14:33N 37°57' E 023°35'0 0.0
2016-May-20 13:33N 37°57' E 023°35'0 0.0
2016-May-20 12:27N 37°57' E 023°35'0 0.0
2016-May-20 11:33N 37°57' E 023°35'0 0.0
2016-May-20 10:33N 37°57' E 023°35'0 0.0
2016-May-20 09:33N 37°57' E 023°35'0 0.0
2016-May-20 08:33N 37°57' E 023°35'0 0.0
2016-May-20 07:33N 37°57' E 023°35'0 0.0
2016-May-20 06:33N 37°57' E 023°35'0 0.0
2016-May-20 05:33N 37°57' E 023°35'0 0.0
2016-May-20 04:33N 37°57' E 023°35'0 0.0
2016-May-20 03:33N 37°57' E 023°35'0 0.0
2016-May-20 02:30N 37°57' E 023°35'0 0.0
2016-May-20 01:33N 37°57' E 023°35'0 0.0
2016-May-20 00:33N 37°57' E 023°35'0 0.0
2016-May-19 23:30N 37°57' E 023°35'0 0.0
2016-May-19 22:33N 37°57' E 023°35'0 0.0
2016-May-19 21:33N 37°57' E 023°35'0 0.0
2016-May-19 20:33N 37°57' E 023°35'0 0.0
2016-May-19 19:33N 37°57' E 023°35'0 0.0
2016-May-19 18:33N 37°57' E 023°35'0 0.0
2016-May-19 17:33N 37°57' E 023°35'0 0.0
2016-May-19 16:33N 37°57' E 023°35'0 0.0
2016-May-19 15:33N 37°57' E 023°35'0 0.0
2016-May-19 14:33N 37°57' E 023°35'0 0.0
2016-May-19 13:33N 37°57' E 023°35'0 0.0
2016-May-19 12:33N 37°57' E 023°35'0 0.0
2016-May-19 11:33N 37°57' E 023°35'0 0.0
2016-May-19 10:30N 37°57' E 023°35'0 0.1
2016-May-19 09:33N 37°57' E 023°35'6 5.5
2016-May-19 08:33N 37°52' E 023°34'8 8.3
2016-May-19 07:33N 37°51' E 023°23'9 9.3
2016-May-19 06:33N 37°53' E 023°12'5 1.1
2016-May-19 01:33N 37°55' E 023°05'0 0.0
2016-May-19 00:33N 37°55' E 023°05'0 0.0
2016-May-18 23:19N 37°55' E 023°05'0 0.0
2016-May-18 22:33N 37°55' E 023°05'0 0.0
2016-May-18 21:30N 37°55' E 023°05'0 0.0
2016-May-18 20:33N 37°55' E 023°05'0 0.0
2016-May-18 19:32N 37°55' E 023°05'0 0.0
2016-May-18 18:20N 37°55' E 023°05'0 0.0
2016-May-18 17:33N 37°55' E 023°05'0 0.0
2016-May-18 16:33N 37°55' E 023°05'0 0.0
2016-May-18 15:29N 37°55' E 023°05'0 0.0
2016-May-18 14:32N 37°55' E 023°05'0 0.0
2016-May-18 13:33N 37°55' E 023°05'0 0.0
2016-May-18 12:25N 37°55' E 023°05'0 0.0
2016-May-18 11:05N 37°55' E 023°05'0 0.0
2016-May-18 10:33N 37°55' E 023°05'0 0.0
2016-May-18 09:26N 37°55' E 023°05'0 0.0
2016-May-18 04:30N 37°55' E 023°05'1 1.1
2016-May-18 03:33N 37°54' E 023°04'0 0.1
2016-May-18 02:16N 37°54' E 023°04'0 0.0
2016-May-17 22:31N 37°54' E 023°04'1 1.1
2016-May-17 21:33N 37°55' E 023°05'0 0.0
2016-May-17 20:34N 37°55' E 023°05'0 0.0
2016-May-17 19:33N 37°55' E 023°05'0 0.0
2016-May-17 18:34N 37°55' E 023°05'0 0.0
2016-May-17 17:33N 37°55' E 023°05'0 0.0
2016-May-17 16:33N 37°55' E 023°05'0 0.0
2016-May-17 15:33N 37°55' E 023°05'0 0.0
2016-May-17 14:31N 37°55' E 023°05'1 1.0
2016-May-17 13:22N 37°54' E 023°04'0 0.0
2016-May-17 11:25N 37°54' E 023°04'0 0.0
2016-May-17 09:28N 37°54' E 023°04'0 0.0
2016-May-17 08:28N 37°54' E 023°04'0 0.0
2016-May-17 04:31N 37°54' E 023°04'0 0.0
2016-May-17 03:31N 37°54' E 023°04'0 0.0
2016-May-17 02:25N 37°54' E 023°04'0 0.0
2016-May-17 01:31N 37°54' E 023°04'0 0.0
2016-May-17 00:28N 37°54' E 023°04'0 0.0
2016-May-16 23:31N 37°54' E 023°04'0 0.0
2016-May-16 22:31N 37°54' E 023°04'0 0.0
2016-May-16 21:22N 37°54' E 023°04'0 0.1
2016-May-16 20:31N 37°54' E 023°04'0 0.0
2016-May-16 19:13N 37°54' E 023°04'0 0.0
2016-May-16 18:31N 37°54' E 023°04'0 0.0
2016-May-16 17:28N 37°54' E 023°04'0 0.0
2016-May-16 15:22N 37°54' E 023°04'0 0.0
2016-May-16 12:24N 37°54' E 023°04'0 0.0
2016-May-16 11:19N 37°54' E 023°04'0 0.0
2016-May-16 10:07N 37°54' E 023°04'0 0.0
2016-May-16 09:04N 37°54' E 023°04'0 0.0
2016-May-16 08:19N 37°54' E 023°04'0 0.0
2016-May-16 07:28N 37°54' E 023°04'0 0.0
2016-May-16 06:31N 37°54' E 023°04'0 0.0
2016-May-16 05:34N 37°54' E 023°04'0 0.0
2016-May-16 04:34N 37°54' E 023°04'0 0.0
2016-May-16 03:31N 37°54' E 023°04'0 0.1
2016-May-16 02:34N 37°54' E 023°04'0 0.0
2016-May-16 01:34N 37°54' E 023°04'0 0.0
2016-May-16 00:33N 37°54' E 023°04'0 0.0
2016-May-15 23:33N 37°54' E 023°04'0 0.0
2016-May-15 22:33N 37°54' E 023°04'0 0.0
2016-May-15 21:30N 37°54' E 023°04'0 0.0
2016-May-15 20:33N 37°54' E 023°04'0 0.1
2016-May-15 19:27N 37°54' E 023°04'0 0.0
2016-May-15 18:27N 37°54' E 023°04'0 0.0
2016-May-15 17:30N 37°54' E 023°04'0 0.0
2016-May-15 16:30N 37°54' E 023°04'0 0.0
2016-May-15 15:21N 37°54' E 023°04'0 0.0
2016-May-15 14:30N 37°54' E 023°04'0 0.0
2016-May-15 13:33N 37°54' E 023°04'0 0.0
2016-May-15 12:19N 37°54' E 023°04'0 0.0
2016-May-15 11:33N 37°54' E 023°04'0 0.0
2016-May-15 10:21N 37°54' E 023°04'0 0.0
2016-May-15 09:33N 37°54' E 023°04'0 0.0
2016-May-15 08:30N 37°54' E 023°04'0 0.0
2016-May-15 07:33N 37°54' E 023°04'0 0.0
2016-May-15 06:33N 37°54' E 023°04'0 0.0
2016-May-15 05:30N 37°54' E 023°04'0 0.0
2016-May-15 04:33N 37°54' E 023°04'0 0.0
2016-May-15 02:27N 37°54' E 023°04'0 0.0
2016-May-15 01:33N 37°54' E 023°04'0 0.0
2016-May-15 00:24N 37°54' E 023°04'0 0.0
2016-May-14 23:33N 37°54' E 023°04'0 0.0
2016-May-14 22:33N 37°54' E 023°04'0 0.0
2016-May-14 21:33N 37°54' E 023°04'0 0.1
2016-May-14 20:33N 37°54' E 023°04'8 7.8
2016-May-14 19:33N 37°53' E 023°14'1010.0
2016-May-14 18:34N 37°51' E 023°26'10 9.8
2016-May-14 17:33N 37°48' E 023°38'9 9.0
2016-May-14 16:33N 37°41' E 023°45'9 9.4
2016-May-14 15:33N 37°38' E 023°56'19 8.6
2016-May-14 13:24N 37°44' E 024°18'  

Dump ship's entire track history